Alumbrera, Argentina
Current Conditions -  °F | °C
As of 1:00 PM on Sunday 21 Dec 2014 (Local Time) from SANT Reporting Station
Broken Clouds Broken Clouds  
Wind Chill: 20°   Ceiling: 3500
Heat Index: 20°   Visibility: 6mi
Dew Point: 12°   Wind: 12mph
Humidity: 60%   Direction: 180°S
Pressure: 29.91"   Gusts: NA
Location:  27.52°S, 66.03°W
Report Text: SANT 211600Z 18010KT 9999 BKN035 BKN10020/12 Q1013
Loading
Personal Weather Stations






























Interactive Weather Map New forecast layout! Learn more

10-Day Weather Forecast

Advertisements
Track Severe Weather on mobile